Time;durP1;ratioP1;P1;durP2;ratioP2;P2;SDS_P1;SDS_P2;PMS_P1;PMS_P2;Temp;Humidity;BMP_temperature;BMP_pressure;BME280_temperature;BME280_humidity;BME280_pressure;Samples;Min_cycle;Max_cycle;Signal;HPM_P1;HPM_P2
2024/01/13 00:01:47;;;;;;;35.67;17.65;;;;;;;-5.50;53.25;94231.56;5005481;28;20054;-67
2024/01/13 00:04:12;;;;;;;30.90;16.10;;;;;;;-5.20;53.14;94226.66;5005784;28;20042;-68
2024/01/13 00:06:37;;;;;;;34.42;17.52;;;;;;;-5.25;52.66;94249.03;5007520;28;20440;-67
2024/01/13 00:09:03;;;;;;;31.85;16.13;;;;;;;-5.35;52.48;94232.09;5003422;28;20029;-68
2024/01/13 00:11:28;;;;;;;34.90;17.65;;;;;;;-5.21;52.77;94242.41;5010773;28;20035;-68
2024/01/13 00:13:53;;;;;;;32.92;16.63;;;;;;;-5.17;52.31;94221.06;5022490;28;20112;-67
2024/01/13 00:16:19;;;;;;;30.70;15.45;;;;;;;-5.23;51.69;94215.91;5005749;28;20042;-67
2024/01/13 00:18:44;;;;;;;32.35;15.65;;;;;;;-5.00;51.58;94217.00;5013096;28;20521;-68
2024/01/13 00:21:10;;;;;;;27.08;15.18;;;;;;;-5.10;51.71;94227.03;5003903;28;20053;-68
2024/01/13 00:23:36;;;;;;;32.05;16.65;;;;;;;-5.02;51.71;94228.56;5009518;28;20050;-68
2024/01/13 00:26:01;;;;;;;30.15;15.60;;;;;;;-4.96;51.18;94217.38;4998302;28;20805;-68
2024/01/13 00:28:26;;;;;;;25.00;14.23;;;;;;;-5.03;51.38;94216.63;5001989;28;20047;-68
2024/01/13 00:30:52;;;;;;;28.45;14.18;;;;;;;-5.08;51.13;94199.09;5005731;28;20494;-67
2024/01/13 00:33:17;;;;;;;29.50;15.65;;;;;;;-5.01;51.22;94204.22;5007465;28;20506;-67
2024/01/13 00:35:43;;;;;;;28.85;14.25;;;;;;;-4.83;51.28;94216.53;5001921;28;20432;-68
2024/01/13 00:38:08;;;;;;;34.97;15.30;;;;;;;-4.91;50.75;94200.19;5012574;28;20059;-68
2024/01/13 00:40:33;;;;;;;42.15;18.75;;;;;;;-5.19;51.36;94193.75;5010149;28;20030;-68
2024/01/13 00:42:59;;;;;;;29.92;15.63;;;;;;;-5.09;51.50;94201.88;5005544;28;20109;-68
2024/01/13 00:45:24;;;;;;;35.13;15.80;;;;;;;-5.17;51.63;94225.47;4998377;28;20030;-67
2024/01/13 00:47:50;;;;;;;30.95;16.17;;;;;;;-5.56;52.45;94177.13;4997597;28;20010;-67
2024/01/13 00:50:15;;;;;;;32.65;16.92;;;;;;;-5.36;52.78;94216.75;5003191;28;20038;-67
2024/01/13 00:52:41;;;;;;;36.03;16.45;;;;;;;-5.44;52.53;94189.28;5004750;28;20129;-68
2024/01/13 00:55:06;;;;;;;35.45;18.73;;;;;;;-5.47;52.48;94199.25;5000952;28;20052;-68
2024/01/13 00:57:32;;;;;;;34.13;17.27;;;;;;;-5.35;52.97;94193.22;5010220;28;20037;-68
2024/01/13 00:59:57;;;;;;;33.63;16.70;;;;;;;-5.43;53.32;94196.06;5011053;28;20577;-68
2024/01/13 01:02:22;;;;;;;29.13;14.93;;;;;;;-5.34;53.14;94199.19;5008805;28;20460;-68
2024/01/13 01:04:48;;;;;;;33.55;17.48;;;;;;;-5.29;52.78;94201.97;5068533;28;20091;-68
2024/01/13 01:07:13;;;;;;;35.20;16.80;;;;;;;-5.36;53.25;94217.53;5019954;28;20037;-67
2024/01/13 01:09:38;;;;;;;32.92;16.15;;;;;;;-5.45;53.38;94192.06;5001153;28;20578;-68
2024/01/13 01:12:04;;;;;;;38.65;17.58;;;;;;;-5.47;53.49;94201.84;5017168;28;20018;-68
2024/01/13 01:14:30;;;;;;;34.92;16.40;;;;;;;-5.60;54.08;94200.06;4999034;28;20137;-68
2024/01/13 01:16:55;;;;;;;36.00;18.63;;;;;;;-5.44;53.86;94180.69;5003535;28;20041;-68
2024/01/13 01:19:21;;;;;;;33.92;16.70;;;;;;;-5.56;54.14;94190.09;5000212;28;20562;-68
2024/01/13 01:21:46;;;;;;;33.40;16.98;;;;;;;-5.90;54.95;94147.16;5005846;28;20120;-68
2024/01/13 01:24:11;;;;;;;38.78;18.40;;;;;;;-5.42;54.26;94176.88;4997770;28;20022;-67
2024/01/13 01:26:37;;;;;;;35.13;19.60;;;;;;;-5.65;54.17;94166.22;5021924;28;20058;-68
2024/01/13 01:29:02;;;;;;;38.65;18.90;;;;;;;-5.73;54.82;94173.41;5001126;28;20038;-67
2024/01/13 01:31:27;;;;;;;33.45;17.10;;;;;;;-5.54;54.45;94182.91;5004903;28;20045;-68
2024/01/13 01:33:53;;;;;;;37.13;18.95;;;;;;;-5.46;54.22;94180.88;5061016;28;20045;-68
2024/01/13 01:36:18;;;;;;;38.30;18.65;;;;;;;-5.67;54.32;94176.00;5002167;28;20033;-68
2024/01/13 01:38:44;;;;;;;33.00;16.63;;;;;;;-5.56;54.39;94170.16;5016877;28;20551;-67
2024/01/13 01:41:16;;;;;;;33.08;18.35;;;;;;;-5.75;54.01;94169.22;5001189;28;20082;-67
2024/01/13 01:43:41;;;;;;;34.72;17.08;;;;;;;-5.68;54.12;94176.19;5004174;28;20038;-68
2024/01/13 01:46:07;;;;;;;33.67;17.10;;;;;;;-5.54;53.86;94180.34;5002251;28;20401;-67
2024/01/13 01:48:35;;;;;;;30.45;16.15;;;;;;;-5.36;53.10;94168.28;5002135;28;20049;-68
2024/01/13 01:51:01;;;;;;;34.40;18.30;;;;;;;-5.35;53.19;94177.66;5007511;28;20041;-68
2024/01/13 01:53:27;;;;;;;35.88;17.00;;;;;;;-5.38;52.72;94172.91;5004094;28;20069;-67
2024/01/13 01:55:53;;;;;;;32.47;16.13;;;;;;;-5.47;52.72;94163.78;5008402;28;20495;-67
2024/01/13 01:58:20;;;;;;;32.88;17.27;;;;;;;-5.28;53.12;94198.38;5012722;28;20041;-68
2024/01/13 02:00:45;;;;;;;29.50;16.63;;;;;;;-5.35;52.99;94193.22;5006603;28;20073;-68
2024/01/13 02:03:12;;;;;;;34.55;17.55;;;;;;;-5.20;52.56;94189.56;5010135;28;20045;-67
2024/01/13 02:05:37;;;;;;;30.45;16.00;;;;;;;-5.39;52.78;94179.09;5015260;28;20594;-68
2024/01/13 02:08:04;;;;;;;30.80;16.45;;;;;;;-5.26;53.11;94187.78;5023858;28;20574;-68
2024/01/13 02:10:30;;;;;;;33.40;17.20;;;;;;;-5.26;52.58;94187.78;5009821;28;20702;-68
2024/01/13 02:12:55;;;;;;;35.03;17.23;;;;;;;-5.38;53.16;94174.69;5036726;28;20028;-68
2024/01/13 02:15:20;;;;;;;34.03;16.85;;;;;;;-5.59;53.24;94168.00;5012575;28;20068;-68
2024/01/13 02:17:46;;;;;;;36.50;16.88;;;;;;;-5.64;53.56;94183.34;5017630;28;20472;-68
2024/01/13 02:20:12;;;;;;;32.88;16.27;;;;;;;-5.59;54.03;94186.13;5066458;28;20406;-68
2024/01/13 02:22:37;;;;;;;28.73;15.65;;;;;;;-5.69;53.94;94180.56;5049680;28;20038;-68
2024/01/13 02:25:04;;;;;;;32.70;16.48;;;;;;;-5.90;54.51;94166.06;5055025;28;20431;-68
2024/01/13 02:27:30;;;;;;;32.55;16.55;;;;;;;-5.66;54.48;94171.63;4982797;28;20076;-68
2024/01/13 02:29:56;;;;;;;36.22;18.80;;;;;;;-5.64;54.67;94161.81;4988208;28;20515;-68
2024/01/13 02:32:21;;;;;;;33.42;16.40;;;;;;;-5.55;54.25;94153.63;4985783;28;20034;-68
2024/01/13 02:34:47;;;;;;;29.48;16.17;;;;;;;-5.53;53.87;94158.59;4982844;28;20034;-68
2024/01/13 02:37:12;;;;;;;32.80;16.30;;;;;;;-5.65;53.99;94148.06;4986539;28;20046;-68
2024/01/13 02:39:38;;;;;;;34.95;17.50;;;;;;;-5.75;54.04;94135.53;4986937;28;20084;-67
2024/01/13 02:42:04;;;;;;;33.90;17.05;;;;;;;-5.59;54.24;94152.44;4984760;28;20152;-68
2024/01/13 02:44:29;;;;;;;35.42;16.77;;;;;;;-5.37;53.85;94158.16;4986085;28;20533;-68
2024/01/13 02:46:55;;;;;;;36.80;18.45;;;;;;;-5.56;53.83;94143.44;4980917;28;20057;-67
2024/01/13 02:49:20;;;;;;;36.78;17.65;;;;;;;-5.44;54.25;94155.56;4991782;28;20061;-68
2024/01/13 02:51:46;;;;;;;35.17;18.02;;;;;;;-5.38;53.92;94151.38;4994422;28;20517;-67
2024/01/13 02:54:11;;;;;;;30.58;16.30;;;;;;;-5.46;54.17;94144.59;5036262;28;20079;-68
2024/01/13 02:56:37;;;;;;;32.95;17.23;;;;;;;-5.40;53.84;94138.59;5003277;28;20042;-69
2024/01/13 02:59:02;;;;;;;32.05;16.42;;;;;;;-5.28;53.57;94132.78;4990017;28;20034;-68
2024/01/13 03:01:30;;;;;;;32.58;17.02;;;;;;;-5.15;53.38;94163.81;5005008;28;20041;-68
2024/01/13 03:03:56;;;;;;;31.65;16.02;;;;;;;-5.18;53.41;94167.63;5002865;28;20030;-68
2024/01/13 03:06:23;;;;;;;38.42;19.75;;;;;;;-5.04;53.72;94152.78;5002536;28;20438;-67
2024/01/13 03:08:48;;;;;;;31.02;16.60;;;;;;;-4.89;52.66;94150.69;5002698;28;20539;-68
2024/01/13 03:11:13;;;;;;;35.33;17.95;;;;;;;-4.86;52.72;94160.66;5006424;28;20034;-67
2024/01/13 03:13:39;;;;;;;35.30;16.77;;;;;;;-4.80;52.84;94159.81;5004237;28;20412;-67
2024/01/13 03:16:05;;;;;;;33.35;17.30;;;;;;;-4.83;52.84;94160.22;5010098;28;20055;-67
2024/01/13 03:18:31;;;;;;;31.17;17.27;;;;;;;-4.82;53.02;94181.78;5009522;28;20031;-67
2024/01/13 03:20:56;;;;;;;32.92;16.42;;;;;;;-4.94;53.06;94168.69;5002536;28;20048;-68
2024/01/13 03:23:22;;;;;;;36.75;18.75;;;;;;;-4.75;52.97;94188.53;5008512;28;20585;-68
2024/01/13 03:25:47;;;;;;;35.20;17.92;;;;;;;-4.79;53.31;94184.75;4996486;28;20111;-68
2024/01/13 03:28:12;;;;;;;34.90;17.83;;;;;;;-4.73;52.90;94191.69;4983405;28;20041;-67
2024/01/13 03:30:38;;;;;;;36.65;18.23;;;;;;;-4.64;52.63;94190.47;4980137;28;20054;-68
2024/01/13 03:33:03;;;;;;;33.90;18.20;;;;;;;-4.64;52.39;94187.88;4986371;28;20467;-68
2024/01/13 03:35:28;;;;;;;34.92;18.30;;;;;;;-4.81;52.27;94181.56;4982725;28;20046;-68
2024/01/13 03:37:54;;;;;;;32.10;17.58;;;;;;;-5.06;53.13;94180.72;4983822;28;20050;-68
2024/01/13 03:40:20;;;;;;;33.72;18.20;;;;;;;-4.91;52.90;94163.06;4981454;28;20563;-68
2024/01/13 03:42:45;;;;;;;33.45;18.52;;;;;;;-5.08;53.41;94162.00;4990827;28;20688;-68
2024/01/13 03:45:12;;;;;;;32.90;17.58;;;;;;;-5.09;52.97;94171.56;4985033;28;20479;-68
2024/01/13 03:47:39;;;;;;;34.20;16.58;;;;;;;-5.01;52.90;94162.72;4987376;28;20042;-67
2024/01/13 03:50:06;;;;;;;33.47;18.45;;;;;;;-4.76;52.82;94183.53;4990884;28;20040;-68
2024/01/13 03:52:31;;;;;;;36.38;18.20;;;;;;;-5.08;52.96;94164.56;4989136;28;20038;-68
2024/01/13 03:54:57;;;;;;;31.27;16.20;;;;;;;-5.36;52.33;94152.72;4989410;28;20121;-68
2024/01/13 03:57:22;;;;;;;33.75;16.77;;;;;;;-5.33;52.38;94144.56;4981718;28;20030;-67
2024/01/13 03:59:47;;;;;;;32.10;16.98;;;;;;;-5.27;51.91;94118.81;4980210;28;20066;-68
2024/01/13 04:02:13;;;;;;;39.85;21.20;;;;;;;-5.38;52.57;94159.13;4984977;28;20403;-68
2024/01/13 04:04:38;;;;;;;35.70;19.73;;;;;;;-5.46;52.50;94167.94;4983072;28;20038;-68
2024/01/13 04:07:04;;;;;;;37.33;18.63;;;;;;;-5.48;52.70;94125.88;4990734;28;20030;-68
2024/01/13 04:09:29;;;;;;;34.58;18.45;;;;;;;-5.31;53.56;94158.09;4983694;28;20509;-68
2024/01/13 04:11:55;;;;;;;39.75;20.27;;;;;;;-5.31;54.25;94142.53;4980049;28;20113;-68
2024/01/13 04:14:20;;;;;;;37.95;19.55;;;;;;;-5.19;54.53;94167.81;4963708;28;20035;-67
2024/01/13 04:16:45;;;;;;;42.95;20.90;;;;;;;-5.13;54.41;94164.41;4995574;28;20521;-67
2024/01/13 04:19:11;;;;;;;41.92;21.88;;;;;;;-5.33;55.18;94167.91;4980760;28;20041;-68
2024/01/13 04:21:36;;;;;;;40.17;21.75;;;;;;;-5.22;54.93;94161.25;4983435;28;20633;-67
2024/01/13 04:24:04;;;;;;;47.13;22.25;;;;;;;-5.23;54.60;94179.63;4989314;28;20014;-68
2024/01/13 04:26:29;;;;;;;38.70;20.05;;;;;;;-5.01;54.21;94193.84;5004155;28;20075;-68
2024/01/13 04:28:54;;;;;;;38.10;21.10;;;;;;;-5.17;54.14;94183.97;5009200;28;20115;-67
2024/01/13 04:31:20;;;;;;;49.58;25.02;;;;;;;-5.21;54.51;94182.78;5012387;28;20452;-68
2024/01/13 04:33:45;;;;;;;50.53;27.10;;;;;;;-4.94;53.43;94205.00;5004276;28;20043;-68
2024/01/13 04:36:11;;;;;;;46.60;24.98;;;;;;;-5.03;53.61;94208.84;4995190;28;20022;-67
2024/01/13 04:38:36;;;;;;;41.13;22.38;;;;;;;-5.04;53.78;94199.47;5003427;28;20061;-68
2024/01/13 04:41:02;;;;;;;47.83;25.95;;;;;;;-4.70;52.44;94198.28;5064289;28;20055;-68
2024/01/13 04:43:28;;;;;;;37.22;19.67;;;;;;;-5.03;51.63;94183.72;5080824;27;20086;-68
2024/01/13 04:45:54;;;;;;;34.50;19.45;;;;;;;-5.09;52.11;94209.66;5081408;28;20493;-68
2024/01/13 04:48:19;;;;;;;38.85;18.10;;;;;;;-5.02;51.81;94206.03;5082703;28;20023;-67
2024/01/13 04:50:45;;;;;;;29.25;15.90;;;;;;;-5.37;51.92;94179.66;5081186;28;20046;-67
2024/01/13 04:53:11;;;;;;;28.98;14.63;;;;;;;-5.14;51.40;94199.13;5082033;28;20433;-68
2024/01/13 04:55:36;;;;;;;32.58;15.85;;;;;;;-5.13;51.39;94205.91;5080619;28;20116;-67
2024/01/13 04:58:01;;;;;;;30.58;16.65;;;;;;;-5.03;50.75;94206.25;5082642;28;20561;-68
2024/01/13 05:00:28;;;;;;;34.78;17.25;;;;;;;-4.97;51.15;94221.75;5082312;28;20022;-67
2024/01/13 05:02:53;;;;;;;32.90;16.88;;;;;;;-4.86;50.79;94212.53;5085087;28;20035;-68
2024/01/13 05:05:18;;;;;;;33.42;16.60;;;;;;;-4.86;49.95;94209.94;5083323;28;20116;-67
2024/01/13 05:07:44;;;;;;;25.08;14.05;;;;;;;-4.84;50.29;94209.75;5083805;28;20397;-68
2024/01/13 05:10:09;;;;;;;29.48;15.52;;;;;;;-5.12;49.82;94161.59;5084326;28;20048;-67
2024/01/13 05:12:35;;;;;;;31.67;15.98;;;;;;;-4.81;49.89;94215.31;5078898;28;20040;-67
2024/01/13 05:15:00;;;;;;;29.33;16.58;;;;;;;-5.14;50.32;94194.72;5081918;28;20540;-68
2024/01/13 05:17:25;;;;;;;38.33;17.67;;;;;;;-5.20;50.96;94185.19;5083496;28;20067;-68
2024/01/13 05:19:51;;;;;;;31.25;15.27;;;;;;;-5.13;50.62;94174.78;5082993;28;20040;-68
2024/01/13 05:22:16;;;;;;;31.00;15.30;;;;;;;-5.27;50.77;94175.84;5083545;28;20029;-68
2024/01/13 05:24:42;;;;;;;35.63;16.83;;;;;;;-5.12;50.44;94165.97;5079835;28;20036;-67
2024/01/13 05:27:08;;;;;;;31.42;16.27;;;;;;;-5.00;50.40;94169.50;5080143;28;20028;-67
2024/01/13 05:29:33;;;;;;;31.25;17.25;;;;;;;-5.13;50.18;94161.81;5082553;28;20037;-67
2024/01/13 05:31:59;;;;;;;33.25;17.40;;;;;;;-5.44;50.76;94147.78;5081292;28;20037;-68
2024/01/13 05:34:24;;;;;;;37.00;18.98;;;;;;;-5.56;51.35;94152.00;5085004;28;20032;-68
2024/01/13 05:36:49;;;;;;;32.63;17.95;;;;;;;-5.45;51.29;94158.34;5081671;28;20028;-68
2024/01/13 05:39:15;;;;;;;28.38;16.63;;;;;;;-5.30;51.07;94158.91;5088871;28;20024;-67
2024/01/13 05:41:40;;;;;;;31.50;16.52;;;;;;;-5.30;50.75;94164.06;5092647;28;20474;-68
2024/01/13 05:44:05;;;;;;;28.00;15.13;;;;;;;-5.29;50.66;94170.06;5090864;28;20081;-67
2024/01/13 05:46:31;;;;;;;28.13;15.43;;;;;;;-5.54;51.06;94163.00;5048116;28;20039;-67
2024/01/13 05:48:58;;;;;;;23.90;13.98;;;;;;;-5.57;51.38;94186.72;4984694;28;20061;-68
2024/01/13 05:51:23;;;;;;;30.50;15.77;;;;;;;-5.61;51.75;94198.47;4996379;28;20031;-67
2024/01/13 05:53:49;;;;;;;28.77;15.38;;;;;;;-5.45;51.79;94182.50;5005391;28;20067;-68
2024/01/13 05:56:14;;;;;;;29.02;15.27;;;;;;;-5.31;51.16;94186.63;4999261;28;20401;-68
2024/01/13 05:58:41;;;;;;;23.67;14.20;;;;;;;-5.50;51.04;94179.72;5018444;28;20030;-68
2024/01/13 06:01:06;;;;;;;31.40;17.92;;;;;;;-5.26;50.79;94198.16;5005384;28;20083;-67
2024/01/13 06:03:32;;;;;;;25.45;14.40;;;;;;;-5.16;50.66;94190.75;5009147;28;20038;-68
2024/01/13 06:05:58;;;;;;;26.02;15.15;;;;;;;-5.08;50.38;94190.50;4993630;28;20118;-68
2024/01/13 06:08:23;;;;;;;30.50;16.25;;;;;;;-4.92;50.27;94195.19;5018513;28;20031;-68
2024/01/13 06:10:48;;;;;;;27.95;14.40;;;;;;;-5.05;50.12;94185.69;5010641;28;20064;-68
2024/01/13 06:13:14;;;;;;;25.83;15.02;;;;;;;-5.19;50.78;94188.56;4980881;28;20646;-67
2024/01/13 06:15:39;;;;;;;75.45;31.92;;;;;;;-5.55;51.80;94191.69;4982960;28;20041;-67
2024/01/13 06:18:05;;;;;;;64.25;32.33;;;;;;;-5.60;51.85;94179.34;4983205;28;20035;-68
2024/01/13 06:20:31;;;;;;;39.75;20.38;;;;;;;-5.62;51.93;94165.81;4991142;28;20079;-68
2024/01/13 06:22:56;;;;;;;54.65;26.73;;;;;;;-5.57;52.07;94183.34;4981467;28;20042;-68
2024/01/13 06:25:22;;;;;;;39.90;20.33;;;;;;;-5.68;52.80;94205.50;4990161;28;20507;-68
2024/01/13 06:27:48;;;;;;;61.78;26.10;;;;;;;-5.65;52.18;94192.13;5002260;28;20694;-67
2024/01/13 06:30:13;;;;;;;43.28;21.02;;;;;;;-5.60;52.48;94202.66;4999649;28;20030;-68
2024/01/13 06:32:39;;;;;;;67.75;28.17;;;;;;;-5.54;52.39;94175.16;4985542;28;20088;-68
2024/01/13 06:35:04;;;;;;;85.50;37.50;;;;;;;-5.50;52.38;94165.94;4980553;28;20478;-68
2024/01/13 06:37:30;;;;;;;37.90;19.98;;;;;;;-5.53;52.63;94174.94;5016100;28;20068;-67
2024/01/13 06:39:55;;;;;;;67.75;30.77;;;;;;;-5.23;52.02;94180.41;4999852;28;20121;-67
2024/01/13 06:42:21;;;;;;;44.30;21.90;;;;;;;-5.32;51.92;94177.25;4988384;28;20033;-67
2024/01/13 06:44:48;;;;;;;44.13;22.17;;;;;;;-5.33;52.28;94178.25;5004181;28;20018;-68
2024/01/13 06:47:14;;;;;;;38.10;19.02;;;;;;;-5.38;52.35;94172.91;5004153;28;20026;-68
2024/01/13 06:49:39;;;;;;;43.35;22.95;;;;;;;-5.28;52.14;94182.03;5011655;28;20049;-68
2024/01/13 06:52:05;;;;;;;30.48;16.83;;;;;;;-5.08;51.55;94187.91;5017149;28;20030;-68
2024/01/13 06:54:30;;;;;;;33.33;18.15;;;;;;;-5.27;51.93;94189.59;5003132;28;20498;-67
2024/01/13 06:56:55;;;;;;;33.42;17.38;;;;;;;-5.11;51.54;94206.47;5021348;28;20100;-67
2024/01/13 06:59:21;;;;;;;31.77;16.85;;;;;;;-5.26;52.08;94185.19;4997551;28;20042;-67
2024/01/13 07:01:47;;;;;;;31.40;16.45;;;;;;;-5.02;51.69;94200.84;5007568;28;20048;-68
2024/01/13 07:04:13;;;;;;;28.70;16.17;;;;;;;-5.12;51.60;94204.88;5016440;28;20032;-68
2024/01/13 07:06:38;;;;;;;36.65;19.13;;;;;;;-5.08;51.72;94212.06;5004935;28;21271;-68
2024/01/13 07:09:04;;;;;;;41.47;21.85;;;;;;;-4.77;51.10;94210.47;5003243;28;20022;-67
2024/01/13 07:11:29;;;;;;;32.10;16.92;;;;;;;-4.98;51.09;94214.22;5004836;28;20523;-68
2024/01/13 07:13:54;;;;;;;35.95;20.02;;;;;;;-5.13;51.55;94200.72;5004831;28;20550;-68
2024/01/13 07:16:20;;;;;;;40.75;21.95;;;;;;;-4.96;51.64;94225.16;5009250;28;20038;-68
2024/01/13 07:18:45;;;;;;;35.95;19.10;;;;;;;-4.78;51.44;94220.06;5006523;28;20026;-67
2024/01/13 07:21:11;;;;;;;35.40;16.40;;;;;;;-4.72;51.13;94234.81;5018190;28;20030;-68
2024/01/13 07:23:37;;;;;;;35.88;19.90;;;;;;;-4.66;51.25;94222.81;5004978;28;20036;-67
2024/01/13 07:26:02;;;;;;;30.05;15.38;;;;;;;-4.79;51.01;94218.50;5006144;28;20574;-67
2024/01/13 07:28:28;;;;;;;29.42;16.65;;;;;;;-5.00;51.56;94216.19;5047356;28;20539;-68
2024/01/13 07:30:53;;;;;;;31.55;19.17;;;;;;;-5.08;52.13;94232.00;5083713;28;20502;-68
2024/01/13 07:33:18;;;;;;;39.65;22.23;;;;;;;-5.09;52.08;94235.59;5087214;28;20028;-68
2024/01/13 07:35:44;;;;;;;37.72;18.13;;;;;;;-5.18;52.70;94231.66;5082822;28;20099;-67
2024/01/13 07:38:09;;;;;;;33.92;18.85;;;;;;;-5.28;52.77;94231.28;5085490;28;20511;-68
2024/01/13 07:40:35;;;;;;;34.55;18.17;;;;;;;-5.49;52.88;94227.97;5086035;28;20032;-68
2024/01/13 07:43:00;;;;;;;35.70;20.17;;;;;;;-5.17;53.41;94241.81;5084849;28;20036;-67
2024/01/13 07:45:27;;;;;;;35.50;18.38;;;;;;;-5.21;52.69;94232.06;5081621;28;20107;-67
2024/01/13 07:47:52;;;;;;;28.40;15.95;;;;;;;-5.16;52.76;94232.22;5086431;28;20087;-68
2024/01/13 07:50:18;;;;;;;35.83;17.38;;;;;;;-5.49;53.44;94227.16;5021722;28;20704;-68
2024/01/13 07:52:43;;;;;;;33.85;18.77;;;;;;;-5.54;53.94;94222.59;4984061;28;20088;-67
2024/01/13 07:55:09;;;;;;;33.10;16.95;;;;;;;-5.79;54.12;94203.53;4983780;28;20458;-68
2024/01/13 07:57:35;;;;;;;40.50;22.73;;;;;;;-5.53;54.29;94221.59;4984792;28;20069;-68
2024/01/13 08:00:00;;;;;;;41.00;22.85;;;;;;;-5.34;54.11;94228.53;4981271;28;20022;-67
2024/01/13 08:02:26;;;;;;;32.47;18.83;;;;;;;-5.26;53.68;94222.28;4978704;28;20489;-68
2024/01/13 08:04:51;;;;;;;31.85;18.10;;;;;;;-5.38;52.89;94219.56;4985558;28;20126;-68
2024/01/13 08:07:17;;;;;;;34.58;20.17;;;;;;;-5.24;53.27;94237.66;5028616;28;20032;-68
2024/01/13 08:09:42;;;;;;;34.13;18.95;;;;;;;-5.27;53.49;94230.31;5065883;28;20045;-68
2024/01/13 08:12:08;;;;;;;26.63;14.77;;;;;;;-5.28;52.77;94223.50;5013290;28;20038;-68
2024/01/13 08:14:33;;;;;;;34.13;18.15;;;;;;;-5.19;52.53;94219.69;4998684;28;20508;-68
2024/01/13 08:16:59;;;;;;;31.50;18.08;;;;;;;-5.26;52.36;94211.13;5010523;28;20044;-68
2024/01/13 08:19:24;;;;;;;31.20;16.67;;;;;;;-5.28;52.00;94229.50;4999526;28;20459;-68
2024/01/13 08:21:50;;;;;;;26.77;16.00;;;;;;;-5.19;51.81;94206.72;5000262;28;20037;-68
2024/01/13 08:24:16;;;;;;;23.88;14.60;;;;;;;-5.05;52.49;94219.41;5003893;28;20040;-67
2024/01/13 08:26:42;;;;;;;22.67;14.05;;;;;;;-4.88;51.85;94225.69;5004345;28;20039;-68
2024/01/13 08:29:08;;;;;;;26.40;15.65;;;;;;;-4.82;51.28;94234.47;4997151;28;20525;-68
2024/01/13 08:31:33;;;;;;;27.92;16.30;;;;;;;-4.88;51.46;94240.50;5004437;28;20545;-68
2024/01/13 08:33:58;;;;;;;28.98;17.38;;;;;;;-4.86;51.49;94238.47;5006274;28;20035;-68
2024/01/13 08:36:24;;;;;;;33.08;18.65;;;;;;;-5.00;51.76;94205.81;5001133;28;20220;-68
2024/01/13 08:38:49;;;;;;;26.63;16.70;;;;;;;-4.67;51.06;94227.19;5007228;28;20072;-69
2024/01/13 08:41:14;;;;;;;34.15;17.70;;;;;;;-4.72;50.86;94208.84;5002677;28;20410;-71
2024/01/13 08:43:40;;;;;;;27.50;16.35;;;;;;;-4.79;51.11;94218.50;4996553;28;20091;-68
2024/01/13 08:46:07;;;;;;;26.63;16.15;;;;;;;-4.68;51.14;94225.59;4998448;28;20124;-67
2024/01/13 08:48:33;;;;;;;27.67;16.00;;;;;;;-4.69;51.33;94213.66;5000728;28;20033;-68
2024/01/13 08:50:59;;;;;;;36.10;19.13;;;;;;;-4.88;51.14;94214.56;5002878;28;20062;-67
2024/01/13 08:53:24;;;;;;;24.75;15.65;;;;;;;-4.82;50.86;94200.72;5002613;28;20038;-68
2024/01/13 08:55:50;;;;;;;31.08;17.08;;;;;;;-4.82;51.25;94192.94;5058416;28;20137;-68
2024/01/13 08:58:15;;;;;;;20.90;12.55;;;;;;;-4.84;51.92;94189.78;5094492;28;20085;-69
2024/01/13 09:00:40;;;;;;;22.33;12.75;;;;;;;-4.85;51.63;94179.59;5080020;28;20681;-68
2024/01/13 09:03:06;;;;;;;21.48;12.57;;;;;;;-4.74;51.03;94160.78;5082776;28;20016;-67
2024/01/13 09:05:31;;;;;;;18.25;11.32;;;;;;;-4.73;51.31;94165.75;5081979;28;20060;-69
2024/01/13 09:07:59;;;;;;;28.45;16.63;;;;;;;-4.65;50.99;94168.09;5081720;28;20166;-72
2024/01/13 09:10:25;;;;;;;23.88;14.70;;;;;;;-4.60;51.10;94159.69;5081913;28;20123;-69
2024/01/13 09:12:50;;;;;;;23.90;13.38;;;;;;;-4.67;50.23;94153.72;5078682;28;20162;-68
2024/01/13 09:15:15;;;;;;;29.90;18.08;;;;;;;-4.58;50.58;94162.84;5081210;28;20111;-69
2024/01/13 09:17:41;;;;;;;21.95;13.70;;;;;;;-4.52;50.14;94142.03;5082726;28;20040;-69
2024/01/13 09:20:09;;;;;;;23.25;13.57;;;;;;;-4.69;51.08;94171.31;5081212;28;20474;-67
2024/01/13 09:22:35;;;;;;;22.67;13.73;;;;;;;-4.58;51.20;94152.47;5081774;28;20071;-72
2024/01/13 09:25:01;;;;;;;22.80;14.57;;;;;;;-4.60;51.54;94134.53;5081008;28;20047;-72
2024/01/13 09:27:26;;;;;;;25.92;14.38;;;;;;;-4.43;51.08;94151.13;5084782;28;20020;-70
2024/01/13 09:29:52;;;;;;;24.83;14.85;;;;;;;-4.34;51.00;94130.13;5085466;28;20066;-69
2024/01/13 09:32:17;;;;;;;26.77;15.98;;;;;;;-4.27;50.63;94130.84;5079799;28;20493;-70
2024/01/13 09:34:43;;;;;;;32.75;17.98;;;;;;;-4.31;50.77;94122.69;5081143;28;20032;-70
2024/01/13 09:37:10;;;;;;;22.38;14.88;;;;;;;-4.15;50.21;94129.94;5086067;28;20044;-70
2024/01/13 09:39:35;;;;;;;21.75;14.15;;;;;;;-4.17;50.22;94133.75;5082185;28;20094;-70
2024/01/13 09:42:01;;;;;;;23.55;14.30;;;;;;;-4.14;49.83;94128.09;5080507;28;20013;-70
2024/01/13 09:44:29;;;;;;;23.85;13.63;;;;;;;-4.26;50.33;94129.84;5081204;28;20508;-69
2024/01/13 09:46:56;;;;;;;24.00;14.13;;;;;;;-4.02;50.54;94136.78;5083093;28;20477;-70
2024/01/13 09:49:24;;;;;;;19.02;11.88;;;;;;;-3.64;48.90;94131.38;5084239;28;20036;-70
2024/01/13 09:51:50;;;;;;;22.73;13.23;;;;;;;-3.66;48.13;94105.59;5077233;28;20036;-70
2024/01/13 09:54:22;;;;;;;22.80;14.38;;;;;;;-3.85;48.94;94116.22;5084190;28;20242;-70
2024/01/13 09:56:48;;;;;;;20.90;12.48;;;;;;;-3.72;48.42;94101.28;5080814;28;20029;-70
2024/01/13 09:59:15;;;;;;;18.75;12.07;;;;;;;-3.67;48.86;94117.03;5083247;28;20505;-70
2024/01/13 10:01:40;;;;;;;25.65;14.27;;;;;;;-3.60;48.75;94115.13;5083465;28;20197;-70
2024/01/13 10:04:07;;;;;;;27.50;17.63;;;;;;;-3.54;49.23;94097.06;5080710;28;20706;-69
2024/01/13 10:06:33;;;;;;;21.02;13.25;;;;;;;-3.43;49.74;94109.34;5083037;28;20380;-70
2024/01/13 10:08:59;;;;;;;23.10;14.15;;;;;;;-3.40;49.64;94094.09;5084415;28;20020;-70
2024/01/13 10:11:24;;;;;;;24.80;16.05;;;;;;;-3.40;49.41;94069.88;5081057;28;20096;-70
2024/01/13 10:14:03;;;;;;;20.55;13.88;;;;;;;-3.41;49.02;94086.50;5080883;28;20040;-70
2024/01/13 10:16:31;;;;;;;19.95;13.73;;;;;;;-3.18;49.60;94078.81;5081626;28;20101;-70
2024/01/13 10:19:04;;;;;;;20.02;13.13;;;;;;;-2.88;48.05;94076.97;5084948;28;20512;-70
2024/01/13 10:21:30;;;;;;;23.02;14.48;;;;;;;-2.98;47.73;94066.31;5081908;28;20029;-70
2024/01/13 10:23:57;;;;;;;26.05;16.83;;;;;;;-2.97;48.31;94057.47;5081755;28;20089;-69
2024/01/13 10:26:27;;;;;;;22.75;13.43;;;;;;;-3.04;48.31;94056.78;5084994;28;20048;-70
2024/01/13 10:28:54;;;;;;;23.63;15.00;;;;;;;-3.19;48.28;94054.59;5088866;28;20039;-69
2024/01/13 10:31:20;;;;;;;23.05;13.77;;;;;;;-3.18;47.76;94039.78;5084436;28;20040;-70
2024/01/13 10:33:49;;;;;;;18.65;12.38;;;;;;;-3.28;47.88;94050.72;5083820;28;20036;-71
2024/01/13 10:36:16;;;;;;;20.77;13.45;;;;;;;-3.50;49.04;94059.22;5086642;28;20631;-69
2024/01/13 10:38:43;;;;;;;18.35;11.77;;;;;;;-3.52;48.72;94048.25;5084642;28;20017;-69
2024/01/13 10:41:09;;;;;;;21.90;12.10;;;;;;;-3.40;48.79;94060.28;5090350;28;20531;-70
2024/01/13 10:43:42;;;;;;;20.13;12.45;;;;;;;-3.49;48.92;94047.81;5088673;28;20545;-69
2024/01/13 10:46:13;;;;;;;24.67;15.13;;;;;;;-3.40;48.10;94062.09;5087813;28;20111;-70
2024/01/13 10:48:47;;;;;;;24.08;14.75;;;;;;;-3.56;48.64;94038.28;5081679;28;20031;-69
2024/01/13 10:51:29;;;;;;;25.92;17.08;;;;;;;-3.42;48.70;94048.53;5083147;28;20027;-68
2024/01/13 10:53:58;;;;;;;31.77;17.13;;;;;;;-3.52;48.68;94030.06;5087397;28;20091;-71
2024/01/13 10:56:25;;;;;;;28.00;17.27;;;;;;;-3.51;48.51;94039.47;5083652;28;20032;-68
2024/01/13 10:58:51;;;;;;;28.33;16.08;;;;;;;-3.54;48.52;94042.47;5082137;28;20028;-69
2024/01/13 11:01:16;;;;;;;24.90;14.48;;;;;;;-3.43;48.53;94049.53;5085023;28;20078;-69
2024/01/13 11:03:44;;;;;;;24.27;14.75;;;;;;;-3.63;48.63;94014.19;5088057;28;20128;-69
2024/01/13 11:06:09;;;;;;;30.25;18.15;;;;;;;-3.61;48.91;94035.56;5088004;28;20032;-68
2024/01/13 11:08:36;;;;;;;24.13;15.30;;;;;;;-3.57;48.69;94041.13;5085186;28;20032;-71
2024/01/13 11:11:02;;;;;;;22.23;14.30;;;;;;;-3.57;48.84;94028.13;5083961;28;20028;-70